Accueil
METAR-TAF:

METAR-TAF

Aéroports :

Aéroport international de Norwich

Norwich, Angleterre

latitude: 52-38N, longitude: 001-18E, altitude: 14 m

Observation

Le bulletin a été fait il y a 30 minutes, à 02:20 UTC
Vent 9 kt de nord/nord-ouest, variant entre nord-ouest et nord
Température 5°C
Humidité 81%
Pression 1017 hPa
Visibilité 10 km ou plus

METAR: EGSH 240220Z AUTO 34009KT 310V010 9999 FEW010/// SCT026/// 05/02 Q1017

Heure: 03:50 (02:50 UTC)

Prévision

Le bulletin a été fait il y a 56 minutes, à 01:54 UTC
Prévision valable du 24 à 03 UTC au 24 à 12 UTC
Vent 9 kt de nord/nord-ouest
Visibilité 10 km ou plus
Nuages épars à une hauteur de 3000 ft
Probabilité 30% :
Temporairement
du 24 à 03 UTC au 24 à 12 UTC
Vent 15 kt de nord/nord-ouest avec des rafales jusqu'à 25 kt
Visibilité: 7000 m
faibles averses de pluie,

TAF: EGSH 240154Z 2403/2412 33009KT 9999 SCT030 PROB30 TEMPO 2403/2412 33015G25KT 7000 -SHRA

Observations et prévisions météorologiques de plus de 4000 aéroports (messages METAR et TAF).

Les stations disponibles sont représentées par des disques jaunes et rouges sur la carte.

Passer la souris dessus pour voir le nom de la station.

Cliquer dessus pour voir les observations et prévisions météorologiques.

Pour changer de carte: cliquez sur les boutons verts avec une croix noire pour zoomer, sur le bouton vert avec un tiret pour effectuer un zoom arrière, ou sur les flèches vertes pour les cartes adjacentes.


METAR-TAF: